Flowerfield, Illinois
Current Conditions -  °F | °C
As of 1:51 AM on Friday 19 Dec 2014 (Local Time) from KORD Reporting Station
Overcast Overcast  
Wind Chill: -7°   Ceiling: 2500
Heat Index: -3°   Visibility: 10mi
Dew Point: -6°   Wind: 8mph
Humidity: 81%   Direction: 300°WNW
Pressure: 30.27"   Gusts: NA
Location:  41.8742°N, 88.0172°W
Report Text: KORD 190751Z 30007KT 10SM FEW012 OVC025 M03/M06 A3027 RMK AO2 SLP257 T10281056
Loading
Personal Weather Stations






























Interactive Weather Map New forecast layout! Learn more

10-Day Weather Forecast

Advertisements
Track Severe Weather on mobile